sensor_id;sensor_type;location;lat;lon;timestamp;temperature;humidity
20284;DHT22;10301;50.832;4.080;2023-01-10T00:01:07;6.80;79.00
20284;DHT22;10301;50.832;4.080;2023-01-10T00:03:33;6.80;78.50
20284;DHT22;10301;50.832;4.080;2023-01-10T00:05:59;6.90;73.90
20284;DHT22;10301;50.832;4.080;2023-01-10T00:08:24;7.00;73.90
20284;DHT22;10301;50.832;4.080;2023-01-10T00:10:50;6.90;74.40
20284;DHT22;10301;50.832;4.080;2023-01-10T00:13:17;6.80;77.10
20284;DHT22;10301;50.832;4.080;2023-01-10T00:15:52;6.80;80.90
20284;DHT22;10301;50.832;4.080;2023-01-10T00:18:19;6.90;79.70
20284;DHT22;10301;50.832;4.080;2023-01-10T00:20:46;7.00;74.60
20284;DHT22;10301;50.832;4.080;2023-01-10T00:23:12;7.20;68.40
20284;DHT22;10301;50.832;4.080;2023-01-10T00:25:38;7.10;70.70
20284;DHT22;10301;50.832;4.080;2023-01-10T00:28:05;7.20;68.60
20284;DHT22;10301;50.832;4.080;2023-01-10T00:30:31;7.10;71.20
20284;DHT22;10301;50.832;4.080;2023-01-10T00:32:59;7.10;66.80
20284;DHT22;10301;50.832;4.080;2023-01-10T00:35:25;7.10;66.80
20284;DHT22;10301;50.832;4.080;2023-01-10T00:37:51;7.00;68.90
20284;DHT22;10301;50.832;4.080;2023-01-10T00:40:22;7.00;75.10
20284;DHT22;10301;50.832;4.080;2023-01-10T00:42:48;7.10;68.90
20284;DHT22;10301;50.832;4.080;2023-01-10T00:45:52;7.10;67.90
20284;DHT22;10301;50.832;4.080;2023-01-10T00:48:18;7.20;67.00
20284;DHT22;10301;50.832;4.080;2023-01-10T00:50:43;7.10;68.30
20284;DHT22;10301;50.832;4.080;2023-01-10T00:53:10;7.00;68.00
20284;DHT22;10301;50.832;4.080;2023-01-10T00:55:36;6.90;71.30
20284;DHT22;10301;50.832;4.080;2023-01-10T00:58:03;6.70;72.20
20284;DHT22;10301;50.832;4.080;2023-01-10T01:00:29;6.50;76.80
20284;DHT22;10301;50.832;4.080;2023-01-10T01:02:55;6.40;82.00
20284;DHT22;10301;50.832;4.080;2023-01-10T01:05:21;6.30;80.90
20284;DHT22;10301;50.832;4.080;2023-01-10T01:07:50;6.30;83.50
20284;DHT22;10301;50.832;4.080;2023-01-10T01:10:16;6.40;81.40
20284;DHT22;10301;50.832;4.080;2023-01-10T01:12:56;6.30;79.90
20284;DHT22;10301;50.832;4.080;2023-01-10T01:15:23;6.30;80.50
20284;DHT22;10301;50.832;4.080;2023-01-10T01:17:48;6.10;84.80
20284;DHT22;10301;50.832;4.080;2023-01-10T01:20:16;6.10;84.30
20284;DHT22;10301;50.832;4.080;2023-01-10T01:22:42;5.90;87.30
20284;DHT22;10301;50.832;4.080;2023-01-10T01:25:08;5.80;90.70
20284;DHT22;10301;50.832;4.080;2023-01-10T01:27:33;5.90;91.10
20284;DHT22;10301;50.832;4.080;2023-01-10T01:30:00;5.90;91.20
20284;DHT22;10301;50.832;4.080;2023-01-10T01:32:26;6.10;91.00
20284;DHT22;10301;50.832;4.080;2023-01-10T01:34:51;6.20;90.10
20284;DHT22;10301;50.832;4.080;2023-01-10T01:37:17;6.20;89.30
20284;DHT22;10301;50.832;4.080;2023-01-10T01:39:44;6.40;86.50
20284;DHT22;10301;50.832;4.080;2023-01-10T01:42:31;6.50;83.00
20284;DHT22;10301;50.832;4.080;2023-01-10T01:47:50;6.60;82.30
20284;DHT22;10301;50.832;4.080;2023-01-10T01:52:47;6.60;80.20
20284;DHT22;10301;50.832;4.080;2023-01-10T01:55:15;6.60;79.90
20284;DHT22;10301;50.832;4.080;2023-01-10T01:57:41;6.60;79.40
20284;DHT22;10301;50.832;4.080;2023-01-10T02:00:09;6.70;79.50
20284;DHT22;10301;50.832;4.080;2023-01-10T02:02:38;6.70;77.40
20284;DHT22;10301;50.832;4.080;2023-01-10T02:05:08;6.80;77.30
20284;DHT22;10301;50.832;4.080;2023-01-10T02:07:39;6.70;75.10
20284;DHT22;10301;50.832;4.080;2023-01-10T02:10:26;6.60;76.40
20284;DHT22;10301;50.832;4.080;2023-01-10T02:12:55;6.40;80.00
20284;DHT22;10301;50.832;4.080;2023-01-10T02:15:23;6.40;80.70
20284;DHT22;10301;50.832;4.080;2023-01-10T02:17:50;6.30;83.20
20284;DHT22;10301;50.832;4.080;2023-01-10T02:20:18;6.10;85.10
20284;DHT22;10301;50.832;4.080;2023-01-10T02:36:09;5.90;89.80
20284;DHT22;10301;50.832;4.080;2023-01-10T02:38:50;5.90;90.50
20284;DHT22;10301;50.832;4.080;2023-01-10T02:47:06;5.80;91.90
20284;DHT22;10301;50.832;4.080;2023-01-10T02:49:41;5.70;91.30
20284;DHT22;10301;50.832;4.080;2023-01-10T02:52:07;5.50;92.70
20284;DHT22;10301;50.832;4.080;2023-01-10T02:54:33;5.60;93.40
20284;DHT22;10301;50.832;4.080;2023-01-10T02:57:18;5.60;93.10
20284;DHT22;10301;50.832;4.080;2023-01-10T03:02:56;5.70;92.50
20284;DHT22;10301;50.832;4.080;2023-01-10T03:10:53;5.80;88.70
20284;DHT22;10301;50.832;4.080;2023-01-10T03:15:52;5.70;91.00
20284;DHT22;10301;50.832;4.080;2023-01-10T03:18:23;5.60;91.40
20284;DHT22;10301;50.832;4.080;2023-01-10T03:20:54;5.40;92.10
20284;DHT22;10301;50.832;4.080;2023-01-10T03:23:23;5.50;93.20
20284;DHT22;10301;50.832;4.080;2023-01-10T03:25:51;5.40;93.20
20284;DHT22;10301;50.832;4.080;2023-01-10T03:28:25;5.40;93.90
20284;DHT22;10301;50.832;4.080;2023-01-10T03:33:29;5.00;94.80
20284;DHT22;10301;50.832;4.080;2023-01-10T03:36:31;5.00;95.40
20284;DHT22;10301;50.832;4.080;2023-01-10T03:44:46;4.80;97.50
20284;DHT22;10301;50.832;4.080;2023-01-10T03:47:21;5.00;96.20
20284;DHT22;10301;50.832;4.080;2023-01-10T03:49:52;5.00;96.20
20284;DHT22;10301;50.832;4.080;2023-01-10T03:52:19;5.00;94.70
20284;DHT22;10301;50.832;4.080;2023-01-10T03:54:46;4.90;96.10
20284;DHT22;10301;50.832;4.080;2023-01-10T03:57:22;4.90;96.70
20284;DHT22;10301;50.832;4.080;2023-01-10T03:59:52;4.80;97.00
20284;DHT22;10301;50.832;4.080;2023-01-10T04:02:18;4.80;97.40
20284;DHT22;10301;50.832;4.080;2023-01-10T04:04:44;4.80;97.20
20284;DHT22;10301;50.832;4.080;2023-01-10T04:07:09;4.90;97.00
20284;DHT22;10301;50.832;4.080;2023-01-10T04:09:35;5.00;96.10
20284;DHT22;10301;50.832;4.080;2023-01-10T04:12:01;5.10;96.00
20284;DHT22;10301;50.832;4.080;2023-01-10T04:14:27;5.10;95.40
20284;DHT22;10301;50.832;4.080;2023-01-10T04:16:53;5.20;93.80
20284;DHT22;10301;50.832;4.080;2023-01-10T04:19:18;5.40;92.30
20284;DHT22;10301;50.832;4.080;2023-01-10T04:21:44;5.40;91.70
20284;DHT22;10301;50.832;4.080;2023-01-10T04:24:10;5.30;92.00
20284;DHT22;10301;50.832;4.080;2023-01-10T04:26:35;5.30;92.00
20284;DHT22;10301;50.832;4.080;2023-01-10T04:29:01;5.20;92.90
20284;DHT22;10301;50.832;4.080;2023-01-10T04:31:27;5.10;93.20
20284;DHT22;10301;50.832;4.080;2023-01-10T04:33:53;5.30;93.60
20284;DHT22;10301;50.832;4.080;2023-01-10T04:36:19;5.20;93.70
20284;DHT22;10301;50.832;4.080;2023-01-10T04:38:44;5.00;94.90
20284;DHT22;10301;50.832;4.080;2023-01-10T04:41:10;5.00;95.70
20284;DHT22;10301;50.832;4.080;2023-01-10T04:43:36;5.10;95.40
20284;DHT22;10301;50.832;4.080;2023-01-10T04:46:01;5.00;95.20
20284;DHT22;10301;50.832;4.080;2023-01-10T04:48:27;4.80;95.90
20284;DHT22;10301;50.832;4.080;2023-01-10T04:50:53;4.70;97.50
20284;DHT22;10301;50.832;4.080;2023-01-10T04:53:19;5.00;96.50
20284;DHT22;10301;50.832;4.080;2023-01-10T04:55:46;5.00;95.10
20284;DHT22;10301;50.832;4.080;2023-01-10T04:58:12;5.20;93.30
20284;DHT22;10301;50.832;4.080;2023-01-10T05:00:38;4.90;94.10
20284;DHT22;10301;50.832;4.080;2023-01-10T05:03:03;4.90;95.50
20284;DHT22;10301;50.832;4.080;2023-01-10T05:05:30;5.00;95.10
20284;DHT22;10301;50.832;4.080;2023-01-10T05:07:56;4.90;95.20
20284;DHT22;10301;50.832;4.080;2023-01-10T05:10:23;5.10;94.50
20284;DHT22;10301;50.832;4.080;2023-01-10T05:12:49;5.30;92.20
20284;DHT22;10301;50.832;4.080;2023-01-10T05:15:15;5.20;91.80
20284;DHT22;10301;50.832;4.080;2023-01-10T05:17:40;5.00;93.50
20284;DHT22;10301;50.832;4.080;2023-01-10T05:20:06;4.80;95.20
20284;DHT22;10301;50.832;4.080;2023-01-10T05:22:32;4.80;96.50
20284;DHT22;10301;50.832;4.080;2023-01-10T05:24:58;4.80;96.60
20284;DHT22;10301;50.832;4.080;2023-01-10T05:27:24;4.80;96.90
20284;DHT22;10301;50.832;4.080;2023-01-10T05:29:49;4.90;96.10
20284;DHT22;10301;50.832;4.080;2023-01-10T05:32:15;4.80;96.10
20284;DHT22;10301;50.832;4.080;2023-01-10T05:34:41;4.70;97.20
20284;DHT22;10301;50.832;4.080;2023-01-10T05:37:07;4.50;98.00
20284;DHT22;10301;50.832;4.080;2023-01-10T05:39:32;4.40;98.80
20284;DHT22;10301;50.832;4.080;2023-01-10T05:41:58;4.50;99.30
20284;DHT22;10301;50.832;4.080;2023-01-10T05:44:24;4.50;99.40
20284;DHT22;10301;50.832;4.080;2023-01-10T05:46:50;4.60;99.50
20284;DHT22;10301;50.832;4.080;2023-01-10T05:49:15;4.70;98.90
20284;DHT22;10301;50.832;4.080;2023-01-10T05:51:41;4.70;98.20
20284;DHT22;10301;50.832;4.080;2023-01-10T05:54:07;4.70;97.60
20284;DHT22;10301;50.832;4.080;2023-01-10T05:56:33;4.70;97.70
20284;DHT22;10301;50.832;4.080;2023-01-10T05:58:59;4.70;97.80
20284;DHT22;10301;50.832;4.080;2023-01-10T06:01:24;4.80;97.20
20284;DHT22;10301;50.832;4.080;2023-01-10T06:03:50;4.90;95.70
20284;DHT22;10301;50.832;4.080;2023-01-10T06:06:16;4.80;95.70
20284;DHT22;10301;50.832;4.080;2023-01-10T06:08:41;4.60;97.00
20284;DHT22;10301;50.832;4.080;2023-01-10T06:11:07;4.50;98.20
20284;DHT22;10301;50.832;4.080;2023-01-10T06:13:33;4.50;98.40
20284;DHT22;10301;50.832;4.080;2023-01-10T06:15:59;4.40;98.60
20284;DHT22;10301;50.832;4.080;2023-01-10T06:18:25;4.40;99.00
20284;DHT22;10301;50.832;4.080;2023-01-10T06:20:50;4.40;99.10
20284;DHT22;10301;50.832;4.080;2023-01-10T06:23:16;4.40;99.60
20284;DHT22;10301;50.832;4.080;2023-01-10T06:25:42;4.40;99.90
20284;DHT22;10301;50.832;4.080;2023-01-10T06:28:10;4.40;99.70
20284;DHT22;10301;50.832;4.080;2023-01-10T06:30:36;4.60;99.10
20284;DHT22;10301;50.832;4.080;2023-01-10T06:33:03;4.80;96.90
20284;DHT22;10301;50.832;4.080;2023-01-10T06:35:29;4.60;96.90
20284;DHT22;10301;50.832;4.080;2023-01-10T06:37:54;4.50;97.80
20284;DHT22;10301;50.832;4.080;2023-01-10T06:40:20;4.30;98.60
20284;DHT22;10301;50.832;4.080;2023-01-10T06:42:46;4.30;99.60
20284;DHT22;10301;50.832;4.080;2023-01-10T06:45:11;4.30;99.60
20284;DHT22;10301;50.832;4.080;2023-01-10T06:47:37;4.30;99.70
20284;DHT22;10301;50.832;4.080;2023-01-10T06:50:04;4.40;99.20
20284;DHT22;10301;50.832;4.080;2023-01-10T06:52:30;4.40;99.00
20284;DHT22;10301;50.832;4.080;2023-01-10T06:54:55;4.40;99.00
20284;DHT22;10301;50.832;4.080;2023-01-10T06:57:21;4.50;99.20
20284;DHT22;10301;50.832;4.080;2023-01-10T06:59:47;4.60;98.20
20284;DHT22;10301;50.832;4.080;2023-01-10T07:02:13;4.50;98.50
20284;DHT22;10301;50.832;4.080;2023-01-10T07:04:39;4.50;98.30
20284;DHT22;10301;50.832;4.080;2023-01-10T07:07:05;4.40;98.60
20284;DHT22;10301;50.832;4.080;2023-01-10T07:09:30;4.50;98.80
20284;DHT22;10301;50.832;4.080;2023-01-10T07:11:56;4.50;99.10
20284;DHT22;10301;50.832;4.080;2023-01-10T07:14:22;4.80;97.40
20284;DHT22;10301;50.832;4.080;2023-01-10T07:16:48;5.00;95.20
20284;DHT22;10301;50.832;4.080;2023-01-10T07:19:13;4.90;95.20
20284;DHT22;10301;50.832;4.080;2023-01-10T07:21:40;4.80;96.30
20284;DHT22;10301;50.832;4.080;2023-01-10T07:24:06;4.60;96.90
20284;DHT22;10301;50.832;4.080;2023-01-10T07:26:32;4.60;97.90
20284;DHT22;10301;50.832;4.080;2023-01-10T07:28:58;4.40;98.00
20284;DHT22;10301;50.832;4.080;2023-01-10T07:31:24;4.50;99.00
20284;DHT22;10301;50.832;4.080;2023-01-10T07:33:51;4.50;98.80
20284;DHT22;10301;50.832;4.080;2023-01-10T07:36:17;4.50;98.40
20284;DHT22;10301;50.832;4.080;2023-01-10T07:38:43;4.50;98.90
20284;DHT22;10301;50.832;4.080;2023-01-10T07:41:09;4.50;99.50
20284;DHT22;10301;50.832;4.080;2023-01-10T07:43:35;4.70;98.90
20284;DHT22;10301;50.832;4.080;2023-01-10T07:46:02;4.60;98.60
20284;DHT22;10301;50.832;4.080;2023-01-10T07:48:28;4.60;99.00
20284;DHT22;10301;50.832;4.080;2023-01-10T07:50:58;4.60;99.30
20284;DHT22;10301;50.832;4.080;2023-01-10T07:53:25;4.60;99.70
20284;DHT22;10301;50.832;4.080;2023-01-10T07:55:51;4.60;99.90
20284;DHT22;10301;50.832;4.080;2023-01-10T07:58:17;4.50;99.90
20284;DHT22;10301;50.832;4.080;2023-01-10T08:00:43;4.50;99.90
20284;DHT22;10301;50.832;4.080;2023-01-10T08:03:11;4.70;99.90
20284;DHT22;10301;50.832;4.080;2023-01-10T08:05:37;4.70;99.60
20284;DHT22;10301;50.832;4.080;2023-01-10T08:08:08;4.60;99.10
20284;DHT22;10301;50.832;4.080;2023-01-10T08:10:35;4.50;99.40
20284;DHT22;10301;50.832;4.080;2023-01-10T08:13:01;4.50;99.60
20284;DHT22;10301;50.832;4.080;2023-01-10T08:15:28;4.50;99.90
20284;DHT22;10301;50.832;4.080;2023-01-10T08:17:54;4.50;99.90
20284;DHT22;10301;50.832;4.080;2023-01-10T08:20:20;4.50;99.80
20284;DHT22;10301;50.832;4.080;2023-01-10T08:22:45;4.60;99.80
20284;DHT22;10301;50.832;4.080;2023-01-10T08:25:11;4.50;99.10
20284;DHT22;10301;50.832;4.080;2023-01-10T08:27:38;4.70;99.40
20284;DHT22;10301;50.832;4.080;2023-01-10T08:30:04;4.60;98.70
20284;DHT22;10301;50.832;4.080;2023-01-10T08:32:30;4.70;98.70
20284;DHT22;10301;50.832;4.080;2023-01-10T08:34:56;4.60;99.00
20284;DHT22;10301;50.832;4.080;2023-01-10T08:37:22;4.50;99.30
20284;DHT22;10301;50.832;4.080;2023-01-10T08:39:47;4.60;99.70
20284;DHT22;10301;50.832;4.080;2023-01-10T08:42:13;4.80;99.90
20284;DHT22;10301;50.832;4.080;2023-01-10T08:44:40;4.80;98.80
20284;DHT22;10301;50.832;4.080;2023-01-10T08:47:06;4.70;99.00
20284;DHT22;10301;50.832;4.080;2023-01-10T08:49:32;4.80;99.60
20284;DHT22;10301;50.832;4.080;2023-01-10T08:51:57;4.80;99.50
20284;DHT22;10301;50.832;4.080;2023-01-10T08:54:23;4.90;99.20
20284;DHT22;10301;50.832;4.080;2023-01-10T08:56:49;4.90;99.30
20284;DHT22;10301;50.832;4.080;2023-01-10T08:59:15;5.00;98.90
20284;DHT22;10301;50.832;4.080;2023-01-10T09:01:40;5.00;98.80
20284;DHT22;10301;50.832;4.080;2023-01-10T09:04:06;5.00;98.60
20284;DHT22;10301;50.832;4.080;2023-01-10T09:06:32;5.00;98.90
20284;DHT22;10301;50.832;4.080;2023-01-10T09:08:57;5.10;97.90
20284;DHT22;10301;50.832;4.080;2023-01-10T09:11:23;5.10;98.30
20284;DHT22;10301;50.832;4.080;2023-01-10T09:13:49;5.10;98.90
20284;DHT22;10301;50.832;4.080;2023-01-10T09:16:15;5.30;98.90
20284;DHT22;10301;50.832;4.080;2023-01-10T09:18:41;5.30;97.90
20284;DHT22;10301;50.832;4.080;2023-01-10T09:21:07;5.40;96.80
20284;DHT22;10301;50.832;4.080;2023-01-10T09:23:32;5.60;96.50
20284;DHT22;10301;50.832;4.080;2023-01-10T09:25:59;5.50;95.70
20284;DHT22;10301;50.832;4.080;2023-01-10T09:28:25;5.60;96.60
20284;DHT22;10301;50.832;4.080;2023-01-10T09:30:51;5.50;96.30
20284;DHT22;10301;50.832;4.080;2023-01-10T09:33:18;5.30;97.30
20284;DHT22;10301;50.832;4.080;2023-01-10T09:35:44;5.30;98.30
20284;DHT22;10301;50.832;4.080;2023-01-10T09:38:12;5.40;98.10
20284;DHT22;10301;50.832;4.080;2023-01-10T09:41:11;5.40;98.70
20284;DHT22;10301;50.832;4.080;2023-01-10T09:51:41;5.60;98.00
20284;DHT22;10301;50.832;4.080;2023-01-10T09:54:27;5.60;98.30
20284;DHT22;10301;50.832;4.080;2023-01-10T09:56:54;5.70;98.10
20284;DHT22;10301;50.832;4.080;2023-01-10T09:59:23;5.80;98.00
20284;DHT22;10301;50.832;4.080;2023-01-10T10:01:57;6.00;97.10
20284;DHT22;10301;50.832;4.080;2023-01-10T10:04:32;6.00;96.30
20284;DHT22;10301;50.832;4.080;2023-01-10T10:06:59;6.10;96.80
20284;DHT22;10301;50.832;4.080;2023-01-10T10:09:30;6.20;96.40
20284;DHT22;10301;50.832;4.080;2023-01-10T10:17:42;6.30;96.00
20284;DHT22;10301;50.832;4.080;2023-01-10T10:34:39;6.80;93.00
20284;DHT22;10301;50.832;4.080;2023-01-10T10:39:51;6.90;93.30
20284;DHT22;10301;50.832;4.080;2023-01-10T10:42:18;6.80;92.80
20284;DHT22;10301;50.832;4.080;2023-01-10T10:44:46;7.00;91.80
20284;DHT22;10301;50.832;4.080;2023-01-10T10:47:16;7.00;90.20
20284;DHT22;10301;50.832;4.080;2023-01-10T10:52:33;7.00;92.70
20284;DHT22;10301;50.832;4.080;2023-01-10T10:55:01;7.10;92.00
20284;DHT22;10301;50.832;4.080;2023-01-10T10:57:29;7.10;90.30
20284;DHT22;10301;50.832;4.080;2023-01-10T10:59:56;7.00;91.00
20284;DHT22;10301;50.832;4.080;2023-01-10T11:02:29;7.10;91.90
20284;DHT22;10301;50.832;4.080;2023-01-10T11:05:04;7.20;91.20
20284;DHT22;10301;50.832;4.080;2023-01-10T11:07:34;7.40;89.60
20284;DHT22;10301;50.832;4.080;2023-01-10T11:10:15;7.40;86.30
20284;DHT22;10301;50.832;4.080;2023-01-10T11:13:00;7.40;86.10
20284;DHT22;10301;50.832;4.080;2023-01-10T11:15:43;7.30;87.30
20284;DHT22;10301;50.832;4.080;2023-01-10T11:18:18;7.20;89.40
20284;DHT22;10301;50.832;4.080;2023-01-10T11:20:50;7.40;85.70
20284;DHT22;10301;50.832;4.080;2023-01-10T11:26:02;7.40;90.40
20284;DHT22;10301;50.832;4.080;2023-01-10T11:28:30;7.40;89.60
20284;DHT22;10301;50.832;4.080;2023-01-10T11:30:58;7.40;86.60
20284;DHT22;10301;50.832;4.080;2023-01-10T11:33:32;7.40;89.40
20284;DHT22;10301;50.832;4.080;2023-01-10T11:36:10;7.40;88.40
20284;DHT22;10301;50.832;4.080;2023-01-10T11:39:02;7.40;89.80
20284;DHT22;10301;50.832;4.080;2023-01-10T11:41:29;7.50;90.80
20284;DHT22;10301;50.832;4.080;2023-01-10T11:44:28;7.60;88.60
20284;DHT22;10301;50.832;4.080;2023-01-10T11:47:09;7.70;85.30
20284;DHT22;10301;50.832;4.080;2023-01-10T11:49:38;7.80;81.70
20284;DHT22;10301;50.832;4.080;2023-01-10T11:52:23;7.80;87.60
20284;DHT22;10301;50.832;4.080;2023-01-10T11:54:50;7.90;87.60
20284;DHT22;10301;50.832;4.080;2023-01-10T11:57:21;7.90;86.00
20284;DHT22;10301;50.832;4.080;2023-01-10T12:02:34;7.90;89.20
20284;DHT22;10301;50.832;4.080;2023-01-10T12:05:03;7.80;91.10
20284;DHT22;10301;50.832;4.080;2023-01-10T12:07:30;7.60;93.40
20284;DHT22;10301;50.832;4.080;2023-01-10T12:10:20;7.70;93.40
20284;DHT22;10301;50.832;4.080;2023-01-10T12:12:53;7.60;93.90
20284;DHT22;10301;50.832;4.080;2023-01-10T12:15:28;7.80;93.70
20284;DHT22;10301;50.832;4.080;2023-01-10T12:18:00;7.80;93.90
20284;DHT22;10301;50.832;4.080;2023-01-10T12:20:32;7.60;95.20
20284;DHT22;10301;50.832;4.080;2023-01-10T12:23:04;7.60;97.00
20284;DHT22;10301;50.832;4.080;2023-01-10T12:25:32;7.50;96.40
20284;DHT22;10301;50.832;4.080;2023-01-10T12:28:00;7.60;96.70
20284;DHT22;10301;50.832;4.080;2023-01-10T12:32:55;7.60;96.60
20284;DHT22;10301;50.832;4.080;2023-01-10T12:35:39;7.60;97.80
20284;DHT22;10301;50.832;4.080;2023-01-10T12:41:29;7.60;98.90
20284;DHT22;10301;50.832;4.080;2023-01-10T12:44:19;7.70;97.40
20284;DHT22;10301;50.832;4.080;2023-01-10T12:46:51;7.60;98.10
20284;DHT22;10301;50.832;4.080;2023-01-10T12:49:34;7.60;99.10
20284;DHT22;10301;50.832;4.080;2023-01-10T12:52:06;7.70;98.20
20284;DHT22;10301;50.832;4.080;2023-01-10T12:54:35;7.80;96.60
20284;DHT22;10301;50.832;4.080;2023-01-10T12:57:07;7.70;97.80
20284;DHT22;10301;50.832;4.080;2023-01-10T12:59:40;7.40;99.00
20284;DHT22;10301;50.832;4.080;2023-01-10T13:02:17;7.40;99.80
20284;DHT22;10301;50.832;4.080;2023-01-10T13:04:48;7.40;99.90
20284;DHT22;10301;50.832;4.080;2023-01-10T13:07:16;7.40;99.90
20284;DHT22;10301;50.832;4.080;2023-01-10T13:09:43;7.30;99.90
20284;DHT22;10301;50.832;4.080;2023-01-10T13:17:41;7.40;99.90
20284;DHT22;10301;50.832;4.080;2023-01-10T13:20:24;7.40;99.90
20284;DHT22;10301;50.832;4.080;2023-01-10T13:22:58;7.20;99.90
20284;DHT22;10301;50.832;4.080;2023-01-10T13:25:32;7.20;99.90
20284;DHT22;10301;50.832;4.080;2023-01-10T13:28:07;7.30;99.90
20284;DHT22;10301;50.832;4.080;2023-01-10T13:30:39;7.20;99.90
20284;DHT22;10301;50.832;4.080;2023-01-10T13:35:45;7.20;99.90
20284;DHT22;10301;50.832;4.080;2023-01-10T13:38:38;7.30;99.90
20284;DHT22;10301;50.832;4.080;2023-01-10T13:41:09;7.10;99.90
20284;DHT22;10301;50.832;4.080;2023-01-10T13:46:34;7.00;99.90
20284;DHT22;10301;50.832;4.080;2023-01-10T13:51:28;7.10;99.90
20284;DHT22;10301;50.832;4.080;2023-01-10T13:54:24;7.10;99.90
20284;DHT22;10301;50.832;4.080;2023-01-10T13:56:50;7.00;99.90
20284;DHT22;10301;50.832;4.080;2023-01-10T14:02:16;7.00;99.90
20284;DHT22;10301;50.832;4.080;2023-01-10T14:07:41;6.80;99.90
20284;DHT22;10301;50.832;4.080;2023-01-10T14:10:29;6.70;99.90
20284;DHT22;10301;50.832;4.080;2023-01-10T14:13:04;6.90;99.90
20284;DHT22;10301;50.832;4.080;2023-01-10T14:15:41;6.90;99.90
20284;DHT22;10301;50.832;4.080;2023-01-10T14:18:33;6.90;99.90
20284;DHT22;10301;50.832;4.080;2023-01-10T14:21:06;6.80;99.90
20284;DHT22;10301;50.832;4.080;2023-01-10T14:23:41;6.80;99.90
20284;DHT22;10301;50.832;4.080;2023-01-10T14:26:17;6.80;99.90
20284;DHT22;10301;50.832;4.080;2023-01-10T14:28:46;6.80;99.90
20284;DHT22;10301;50.832;4.080;2023-01-10T14:31:22;6.80;99.90
20284;DHT22;10301;50.832;4.080;2023-01-10T14:33:50;6.80;99.90
20284;DHT22;10301;50.832;4.080;2023-01-10T14:36:30;6.80;99.90
20284;DHT22;10301;50.832;4.080;2023-01-10T14:39:03;6.80;99.90
20284;DHT22;10301;50.832;4.080;2023-01-10T14:41:44;6.80;99.90
20284;DHT22;10301;50.832;4.080;2023-01-10T14:44:39;6.80;99.90
20284;DHT22;10301;50.832;4.080;2023-01-10T14:47:28;6.90;99.90
20284;DHT22;10301;50.832;4.080;2023-01-10T14:49:55;7.00;99.90
20284;DHT22;10301;50.832;4.080;2023-01-10T14:52:26;6.90;99.90
20284;DHT22;10301;50.832;4.080;2023-01-10T14:55:15;6.90;99.90
20284;DHT22;10301;50.832;4.080;2023-01-10T14:58:00;7.00;99.90
20284;DHT22;10301;50.832;4.080;2023-01-10T15:00:33;7.00;99.90
20284;DHT22;10301;50.832;4.080;2023-01-10T15:03:01;7.00;99.90
20284;DHT22;10301;50.832;4.080;2023-01-10T15:05:31;7.00;99.90
20284;DHT22;10301;50.832;4.080;2023-01-10T15:08:18;7.00;99.90
20284;DHT22;10301;50.832;4.080;2023-01-10T15:10:45;6.90;99.90
20284;DHT22;10301;50.832;4.080;2023-01-10T15:13:17;6.80;99.90
20284;DHT22;10301;50.832;4.080;2023-01-10T15:15:46;6.90;99.90
20284;DHT22;10301;50.832;4.080;2023-01-10T15:21:03;7.00;99.90
20284;DHT22;10301;50.832;4.080;2023-01-10T15:23:34;7.10;99.90
20284;DHT22;10301;50.832;4.080;2023-01-10T15:26:03;7.10;99.90
20284;DHT22;10301;50.832;4.080;2023-01-10T15:28:29;7.00;99.90
20284;DHT22;10301;50.832;4.080;2023-01-10T15:30:56;7.00;99.90
20284;DHT22;10301;50.832;4.080;2023-01-10T15:33:30;7.10;99.90
20284;DHT22;10301;50.832;4.080;2023-01-10T15:36:06;7.00;99.90
20284;DHT22;10301;50.832;4.080;2023-01-10T15:38:35;7.10;99.90
20284;DHT22;10301;50.832;4.080;2023-01-10T15:41:04;7.10;99.90
20284;DHT22;10301;50.832;4.080;2023-01-10T15:43:32;7.10;99.90
20284;DHT22;10301;50.832;4.080;2023-01-10T15:46:00;7.10;99.90
20284;DHT22;10301;50.832;4.080;2023-01-10T15:51:10;7.10;99.90
20284;DHT22;10301;50.832;4.080;2023-01-10T15:56:55;7.10;99.90
20284;DHT22;10301;50.832;4.080;2023-01-10T15:59:31;7.10;99.90
20284;DHT22;10301;50.832;4.080;2023-01-10T16:02:20;7.10;99.90
20284;DHT22;10301;50.832;4.080;2023-01-10T16:04:48;7.00;99.90
20284;DHT22;10301;50.832;4.080;2023-01-10T16:10:35;7.10;99.90
20284;DHT22;10301;50.832;4.080;2023-01-10T16:12:42;7.10;99.90
20284;DHT22;10301;50.832;4.080;2023-01-10T16:15:28;7.20;99.90
20284;DHT22;10301;50.832;4.080;2023-01-10T16:17:54;7.10;99.90
20284;DHT22;10301;50.832;4.080;2023-01-10T16:20:25;7.10;99.90
20284;DHT22;10301;50.832;4.080;2023-01-10T16:22:51;7.30;99.90
20284;DHT22;10301;50.832;4.080;2023-01-10T16:25:26;7.20;99.90
20284;DHT22;10301;50.832;4.080;2023-01-10T16:27:53;7.20;99.90
20284;DHT22;10301;50.832;4.080;2023-01-10T16:30:30;7.20;99.90
20284;DHT22;10301;50.832;4.080;2023-01-10T16:32:58;7.20;99.90
20284;DHT22;10301;50.832;4.080;2023-01-10T16:35:25;7.20;99.90
20284;DHT22;10301;50.832;4.080;2023-01-10T16:37:56;7.20;99.90
20284;DHT22;10301;50.832;4.080;2023-01-10T16:40:27;7.30;99.90
20284;DHT22;10301;50.832;4.080;2023-01-10T16:42:54;7.30;99.90
20284;DHT22;10301;50.832;4.080;2023-01-10T16:45:39;7.20;99.90
20284;DHT22;10301;50.832;4.080;2023-01-10T16:48:05;7.40;99.90
20284;DHT22;10301;50.832;4.080;2023-01-10T16:50:31;7.40;99.90
20284;DHT22;10301;50.832;4.080;2023-01-10T16:52:58;7.40;99.90
20284;DHT22;10301;50.832;4.080;2023-01-10T16:55:48;7.40;99.90
20284;DHT22;10301;50.832;4.080;2023-01-10T16:58:13;7.40;99.90
20284;DHT22;10301;50.832;4.080;2023-01-10T17:00:40;7.50;99.90
20284;DHT22;10301;50.832;4.080;2023-01-10T17:03:17;7.50;99.90
20284;DHT22;10301;50.832;4.080;2023-01-10T17:05:43;7.40;99.90
20284;DHT22;10301;50.832;4.080;2023-01-10T17:08:20;7.50;99.90
20284;DHT22;10301;50.832;4.080;2023-01-10T17:10:49;7.60;99.90
20284;DHT22;10301;50.832;4.080;2023-01-10T17:13:31;7.60;99.90
20284;DHT22;10301;50.832;4.080;2023-01-10T17:15:57;7.70;99.90
20284;DHT22;10301;50.832;4.080;2023-01-10T17:18:23;7.70;99.90
20284;DHT22;10301;50.832;4.080;2023-01-10T17:20:51;7.80;99.90
20284;DHT22;10301;50.832;4.080;2023-01-10T17:23:17;7.80;99.90
20284;DHT22;10301;50.832;4.080;2023-01-10T17:25:42;7.80;99.90
20284;DHT22;10301;50.832;4.080;2023-01-10T17:28:10;7.80;99.90
20284;DHT22;10301;50.832;4.080;2023-01-10T17:30:38;7.80;99.90
20284;DHT22;10301;50.832;4.080;2023-01-10T17:33:04;7.80;99.90
20284;DHT22;10301;50.832;4.080;2023-01-10T17:35:29;7.90;99.90
20284;DHT22;10301;50.832;4.080;2023-01-10T17:37:56;7.90;99.90
20284;DHT22;10301;50.832;4.080;2023-01-10T17:40:22;7.90;99.90
20284;DHT22;10301;50.832;4.080;2023-01-10T17:42:48;7.90;99.90
20284;DHT22;10301;50.832;4.080;2023-01-10T17:45:13;7.90;99.90
20284;DHT22;10301;50.832;4.080;2023-01-10T17:47:39;8.00;99.90
20284;DHT22;10301;50.832;4.080;2023-01-10T17:50:07;8.00;99.90
20284;DHT22;10301;50.832;4.080;2023-01-10T17:52:32;8.10;99.90
20284;DHT22;10301;50.832;4.080;2023-01-10T17:54:58;8.20;99.90
20284;DHT22;10301;50.832;4.080;2023-01-10T17:57:24;8.30;99.90
20284;DHT22;10301;50.832;4.080;2023-01-10T17:59:49;8.30;99.90